sensor_id;sensor_type;location;lat;lon;timestamp;pressure;altitude;pressure_sealevel;temperature;humidity
2192;BME280;1102;49.718;11.902;2023-03-11T00:01:42;94515.06;;;-0.52;100.00
2192;BME280;1102;49.718;11.902;2023-03-11T00:04:08;94519.00;;;-0.55;100.00
2192;BME280;1102;49.718;11.902;2023-03-11T00:06:35;94530.91;;;-0.63;100.00
2192;BME280;1102;49.718;11.902;2023-03-11T00:09:02;94539.50;;;-0.45;100.00
2192;BME280;1102;49.718;11.902;2023-03-11T00:11:30;94562.88;;;-0.45;100.00
2192;BME280;1102;49.718;11.902;2023-03-11T00:13:57;94568.97;;;-0.49;100.00
2192;BME280;1102;49.718;11.902;2023-03-11T00:16:24;94585.66;;;-0.33;100.00
2192;BME280;1102;49.718;11.902;2023-03-11T00:18:51;94587.34;;;-0.37;100.00
2192;BME280;1102;49.718;11.902;2023-03-11T00:21:18;94599.56;;;-0.38;100.00
2192;BME280;1102;49.718;11.902;2023-03-11T00:23:46;94602.16;;;-0.38;100.00
2192;BME280;1102;49.718;11.902;2023-03-11T00:26:12;94621.47;;;-0.52;100.00
2192;BME280;1102;49.718;11.902;2023-03-11T00:28:39;94589.47;;;-0.70;100.00
2192;BME280;1102;49.718;11.902;2023-03-11T00:31:10;94619.34;;;-0.50;100.00
2192;BME280;1102;49.718;11.902;2023-03-11T00:33:38;94617.91;;;-0.56;100.00
2192;BME280;1102;49.718;11.902;2023-03-11T00:36:05;94602.97;;;-0.82;100.00
2192;BME280;1102;49.718;11.902;2023-03-11T00:38:32;94632.50;;;-0.69;100.00
2192;BME280;1102;49.718;11.902;2023-03-11T00:40:59;94612.22;;;-0.67;100.00
2192;BME280;1102;49.718;11.902;2023-03-11T00:43:30;94646.34;;;-0.51;100.00
2192;BME280;1102;49.718;11.902;2023-03-11T00:45:56;94632.25;;;-0.59;100.00
2192;BME280;1102;49.718;11.902;2023-03-11T00:48:23;94626.38;;;-0.73;100.00
2192;BME280;1102;49.718;11.902;2023-03-11T00:50:50;94642.31;;;-0.66;100.00
2192;BME280;1102;49.718;11.902;2023-03-11T00:53:17;94654.78;;;-0.46;100.00
2192;BME280;1102;49.718;11.902;2023-03-11T00:55:43;94606.53;;;-0.78;100.00
2192;BME280;1102;49.718;11.902;2023-03-11T00:58:13;94668.28;;;-0.35;100.00
2192;BME280;1102;49.718;11.902;2023-03-11T01:00:44;94632.44;;;-0.55;100.00
2192;BME280;1102;49.718;11.902;2023-03-11T01:03:11;94623.09;;;-0.65;100.00
2192;BME280;1102;49.718;11.902;2023-03-11T01:05:37;94682.03;;;-0.35;100.00
2192;BME280;1102;49.718;11.902;2023-03-11T01:08:04;94646.53;;;-0.48;100.00
2192;BME280;1102;49.718;11.902;2023-03-11T01:10:32;94661.72;;;-0.55;100.00
2192;BME280;1102;49.718;11.902;2023-03-11T01:12:59;94665.09;;;-0.54;100.00
2192;BME280;1102;49.718;11.902;2023-03-11T01:15:32;94678.28;;;-0.42;100.00
2192;BME280;1102;49.718;11.902;2023-03-11T01:18:00;94694.69;;;-0.33;100.00
2192;BME280;1102;49.718;11.902;2023-03-11T01:20:28;94688.03;;;-0.25;100.00
2192;BME280;1102;49.718;11.902;2023-03-11T01:22:54;94695.91;;;-0.39;100.00
2192;BME280;1102;49.718;11.902;2023-03-11T01:25:22;94704.47;;;-0.30;100.00
2192;BME280;1102;49.718;11.902;2023-03-11T01:27:49;94692.94;;;-0.46;100.00
2192;BME280;1102;49.718;11.902;2023-03-11T01:30:22;94725.09;;;-0.34;100.00
2192;BME280;1102;49.718;11.902;2023-03-11T01:32:50;94738.38;;;-0.35;100.00
2192;BME280;1102;49.718;11.902;2023-03-11T01:35:19;94741.91;;;-0.31;100.00
2192;BME280;1102;49.718;11.902;2023-03-11T01:37:47;94746.63;;;-0.33;100.00
2192;BME280;1102;49.718;11.902;2023-03-11T01:40:22;94749.44;;;-0.43;100.00
2192;BME280;1102;49.718;11.902;2023-03-11T01:42:49;94759.53;;;-0.42;100.00
2192;BME280;1102;49.718;11.902;2023-03-11T01:45:38;94756.47;;;-0.44;100.00
2192;BME280;1102;49.718;11.902;2023-03-11T01:48:08;94750.09;;;-0.38;100.00
2192;BME280;1102;49.718;11.902;2023-03-11T01:50:40;94749.44;;;-0.43;100.00
2192;BME280;1102;49.718;11.902;2023-03-11T01:53:10;94756.75;;;-0.45;100.00
2192;BME280;1102;49.718;11.902;2023-03-11T01:55:39;94733.47;;;-0.59;100.00
2192;BME280;1102;49.718;11.902;2023-03-11T01:58:09;94732.81;;;-0.65;100.00
2192;BME280;1102;49.718;11.902;2023-03-11T02:00:37;94718.38;;;-0.79;100.00
2192;BME280;1102;49.718;11.902;2023-03-11T02:03:16;94739.25;;;-0.62;100.00
2192;BME280;1102;49.718;11.902;2023-03-11T02:05:45;94751.75;;;-0.64;100.00
2192;BME280;1102;49.718;11.902;2023-03-11T02:08:13;94756.22;;;-0.56;100.00
2192;BME280;1102;49.718;11.902;2023-03-11T02:10:40;94774.75;;;-0.49;100.00
2192;BME280;1102;49.718;11.902;2023-03-11T02:13:08;94779.66;;;-0.47;100.00
2192;BME280;1102;49.718;11.902;2023-03-11T02:15:36;94765.69;;;-0.74;100.00
2192;BME280;1102;49.718;11.902;2023-03-11T02:18:05;94784.97;;;-0.52;100.00
2192;BME280;1102;49.718;11.902;2023-03-11T02:20:59;94788.19;;;-0.47;100.00
2192;BME280;1102;49.718;11.902;2023-03-11T02:23:35;94783.44;;;-0.53;100.00
2192;BME280;1102;49.718;11.902;2023-03-11T02:26:29;94808.31;;;-0.52;100.00
2192;BME280;1102;49.718;11.902;2023-03-11T02:28:58;94794.50;;;-0.62;100.00
2192;BME280;1102;49.718;11.902;2023-03-11T02:31:27;94767.81;;;-0.76;100.00
2192;BME280;1102;49.718;11.902;2023-03-11T02:33:55;94792.03;;;-0.67;100.00
2192;BME280;1102;49.718;11.902;2023-03-11T02:36:35;94805.47;;;-0.65;100.00
2192;BME280;1102;49.718;11.902;2023-03-11T02:39:04;94792.41;;;-0.73;100.00
2192;BME280;1102;49.718;11.902;2023-03-11T02:41:35;94802.91;;;-0.78;100.00
2192;BME280;1102;49.718;11.902;2023-03-11T02:44:06;94778.31;;;-0.95;100.00
2192;BME280;1102;49.718;11.902;2023-03-11T02:46:34;94791.50;;;-0.91;100.00
2192;BME280;1102;49.718;11.902;2023-03-11T02:49:02;94804.91;;;-0.75;100.00
2192;BME280;1102;49.718;11.902;2023-03-11T02:51:29;94805.13;;;-0.99;100.00
2192;BME280;1102;49.718;11.902;2023-03-11T02:53:59;94831.50;;;-0.70;100.00
2192;BME280;1102;49.718;11.902;2023-03-11T02:56:28;94805.13;;;-0.85;100.00
2192;BME280;1102;49.718;11.902;2023-03-11T02:58:54;94803.50;;;-0.95;100.00
2192;BME280;1102;49.718;11.902;2023-03-11T03:01:21;94819.53;;;-0.79;100.00
2192;BME280;1102;49.718;11.902;2023-03-11T03:03:49;94797.75;;;-0.92;100.00
2192;BME280;1102;49.718;11.902;2023-03-11T03:06:16;94854.31;;;-0.67;100.00
2192;BME280;1102;49.718;11.902;2023-03-11T03:08:42;94856.88;;;-0.80;100.00
2192;BME280;1102;49.718;11.902;2023-03-11T03:11:09;94843.56;;;-0.87;100.00
2192;BME280;1102;49.718;11.902;2023-03-11T03:13:36;94857.47;;;-0.97;100.00
2192;BME280;1102;49.718;11.902;2023-03-11T03:16:02;94865.19;;;-0.92;100.00
2192;BME280;1102;49.718;11.902;2023-03-11T03:18:31;94874.28;;;-0.95;100.00
2192;BME280;1102;49.718;11.902;2023-03-11T03:20:58;94871.50;;;-0.98;100.00
2192;BME280;1102;49.718;11.902;2023-03-11T03:23:25;94869.97;;;-0.99;100.00
2192;BME280;1102;49.718;11.902;2023-03-11T03:25:52;94858.44;;;-1.21;100.00
2192;BME280;1102;49.718;11.902;2023-03-11T03:28:18;94876.22;;;-1.00;100.00
2192;BME280;1102;49.718;11.902;2023-03-11T03:30:45;94883.03;;;-1.04;100.00
2192;BME280;1102;49.718;11.902;2023-03-11T03:33:13;94885.16;;;-1.06;100.00
2192;BME280;1102;49.718;11.902;2023-03-11T03:35:41;94876.97;;;-1.13;100.00
2192;BME280;1102;49.718;11.902;2023-03-11T03:38:16;94850.47;;;-1.10;100.00
2192;BME280;1102;49.718;11.902;2023-03-11T03:40:46;94856.53;;;-1.29;100.00
2192;BME280;1102;49.718;11.902;2023-03-11T03:43:16;94871.69;;;-1.08;100.00
2192;BME280;1102;49.718;11.902;2023-03-11T03:45:44;94893.69;;;-1.20;100.00
2192;BME280;1102;49.718;11.902;2023-03-11T03:48:11;94848.34;;;-1.36;100.00
2192;BME280;1102;49.718;11.902;2023-03-11T03:50:42;94879.56;;;-1.13;100.00
2192;BME280;1102;49.718;11.902;2023-03-11T03:53:11;94895.03;;;-1.08;100.00
2192;BME280;1102;49.718;11.902;2023-03-11T03:55:39;94884.34;;;-1.21;100.00
2192;BME280;1102;49.718;11.902;2023-03-11T03:58:05;94861.13;;;-1.39;100.00
2192;BME280;1102;49.718;11.902;2023-03-11T04:00:34;94890.69;;;-1.27;100.00
2192;BME280;1102;49.718;11.902;2023-03-11T04:03:02;94899.13;;;-1.35;100.00
2192;BME280;1102;49.718;11.902;2023-03-11T04:05:45;94903.16;;;-1.42;100.00
2192;BME280;1102;49.718;11.902;2023-03-11T04:08:12;94880.38;;;-1.59;100.00
2192;BME280;1102;49.718;11.902;2023-03-11T04:10:39;94901.03;;;-1.40;100.00
2192;BME280;1102;49.718;11.902;2023-03-11T04:13:06;94900.66;;;-1.34;100.00
2192;BME280;1102;49.718;11.902;2023-03-11T04:15:33;94908.06;;;-1.41;100.00
2192;BME280;1102;49.718;11.902;2023-03-11T04:18:00;94885.75;;;-1.56;100.00
2192;BME280;1102;49.718;11.902;2023-03-11T04:20:27;94901.50;;;-1.52;100.00
2192;BME280;1102;49.718;11.902;2023-03-11T04:22:53;94912.34;;;-1.50;100.00
2192;BME280;1102;49.718;11.902;2023-03-11T04:25:22;94867.13;;;-1.90;100.00
2192;BME280;1102;49.718;11.902;2023-03-11T04:27:49;94924.66;;;-1.42;100.00
2192;BME280;1102;49.718;11.902;2023-03-11T04:30:18;94904.06;;;-1.66;100.00
2192;BME280;1102;49.718;11.902;2023-03-11T04:32:47;94903.31;;;-1.53;100.00
2192;BME280;1102;49.718;11.902;2023-03-11T04:35:14;94901.97;;;-1.50;100.00
2192;BME280;1102;49.718;11.902;2023-03-11T04:37:41;94945.63;;;-1.25;100.00
2192;BME280;1102;49.718;11.902;2023-03-11T04:40:08;94949.75;;;-1.24;100.00
2192;BME280;1102;49.718;11.902;2023-03-11T04:42:36;94952.03;;;-1.22;100.00
2192;BME280;1102;49.718;11.902;2023-03-11T04:45:06;94934.16;;;-1.37;100.00
2192;BME280;1102;49.718;11.902;2023-03-11T04:47:33;94949.13;;;-1.34;100.00
2192;BME280;1102;49.718;11.902;2023-03-11T04:50:02;94940.16;;;-1.56;100.00
2192;BME280;1102;49.718;11.902;2023-03-11T04:52:29;94953.22;;;-1.47;100.00
2192;BME280;1102;49.718;11.902;2023-03-11T04:54:56;94940.94;;;-1.55;100.00
2192;BME280;1102;49.718;11.902;2023-03-11T04:57:23;94959.88;;;-1.41;100.00
2192;BME280;1102;49.718;11.902;2023-03-11T04:59:49;94925.34;;;-1.69;100.00
2192;BME280;1102;49.718;11.902;2023-03-11T05:02:17;94962.31;;;-1.31;100.00
2192;BME280;1102;49.718;11.902;2023-03-11T05:04:51;94946.69;;;-1.58;100.00
2192;BME280;1102;49.718;11.902;2023-03-11T05:07:18;94973.19;;;-1.48;100.00
2192;BME280;1102;49.718;11.902;2023-03-11T05:09:45;94946.56;;;-1.67;100.00
2192;BME280;1102;49.718;11.902;2023-03-11T05:12:12;94990.69;;;-1.39;100.00
2192;BME280;1102;49.718;11.902;2023-03-11T05:14:41;94968.94;;;-1.57;100.00
2192;BME280;1102;49.718;11.902;2023-03-11T05:17:08;95002.13;;;-1.40;100.00
2192;BME280;1102;49.718;11.902;2023-03-11T05:19:37;94997.44;;;-1.57;100.00
2192;BME280;1102;49.718;11.902;2023-03-11T05:22:17;94994.50;;;-1.51;100.00
2192;BME280;1102;49.718;11.902;2023-03-11T05:24:43;95013.59;;;-1.28;100.00
2192;BME280;1102;49.718;11.902;2023-03-11T05:27:13;95007.63;;;-1.28;100.00
2192;BME280;1102;49.718;11.902;2023-03-11T05:29:45;95018.00;;;-1.28;100.00
2192;BME280;1102;49.718;11.902;2023-03-11T05:32:13;95004.94;;;-1.23;100.00
2192;BME280;1102;49.718;11.902;2023-03-11T05:34:42;94982.31;;;-1.50;100.00
2192;BME280;1102;49.718;11.902;2023-03-11T05:37:09;95042.44;;;-1.15;100.00
2192;BME280;1102;49.718;11.902;2023-03-11T05:39:37;94988.63;;;-1.56;100.00
2192;BME280;1102;49.718;11.902;2023-03-11T05:42:05;95036.09;;;-1.42;100.00
2192;BME280;1102;49.718;11.902;2023-03-11T05:44:32;95038.75;;;-1.28;100.00
2192;BME280;1102;49.718;11.902;2023-03-11T05:47:00;95049.88;;;-1.28;100.00
2192;BME280;1102;49.718;11.902;2023-03-11T05:49:27;95046.31;;;-1.51;100.00
2192;BME280;1102;49.718;11.902;2023-03-11T05:51:54;95030.66;;;-1.59;100.00
2192;BME280;1102;49.718;11.902;2023-03-11T05:54:25;95062.00;;;-1.42;100.00
2192;BME280;1102;49.718;11.902;2023-03-11T05:56:53;95016.00;;;-1.69;100.00
2192;BME280;1102;49.718;11.902;2023-03-11T05:59:21;95067.16;;;-1.23;100.00
2192;BME280;1102;49.718;11.902;2023-03-11T06:01:55;95014.28;;;-1.73;100.00
2192;BME280;1102;49.718;11.902;2023-03-11T06:04:23;95076.44;;;-1.55;100.00
2192;BME280;1102;49.718;11.902;2023-03-11T06:06:50;95049.19;;;-1.52;100.00
2192;BME280;1102;49.718;11.902;2023-03-11T06:09:19;95001.75;;;-1.85;100.00
2192;BME280;1102;49.718;11.902;2023-03-11T06:11:46;95063.56;;;-1.60;100.00
2192;BME280;1102;49.718;11.902;2023-03-11T06:14:14;95067.41;;;-1.57;100.00
2192;BME280;1102;49.718;11.902;2023-03-11T06:16:43;95061.38;;;-1.71;100.00
2192;BME280;1102;49.718;11.902;2023-03-11T06:19:11;95064.28;;;-1.97;100.00
2192;BME280;1102;49.718;11.902;2023-03-11T06:21:41;95097.94;;;-1.54;100.00
2192;BME280;1102;49.718;11.902;2023-03-11T06:24:08;95037.69;;;-2.02;100.00
2192;BME280;1102;49.718;11.902;2023-03-11T06:26:35;95095.91;;;-1.57;100.00
2192;BME280;1102;49.718;11.902;2023-03-11T06:29:03;95114.06;;;-1.57;100.00
2192;BME280;1102;49.718;11.902;2023-03-11T06:31:30;95070.53;;;-1.98;100.00
2192;BME280;1102;49.718;11.902;2023-03-11T06:34:03;95105.94;;;-1.74;100.00
2192;BME280;1102;49.718;11.902;2023-03-11T06:36:32;95103.06;;;-1.92;100.00
2192;BME280;1102;49.718;11.902;2023-03-11T06:38:59;95115.34;;;-1.79;100.00
2192;BME280;1102;49.718;11.902;2023-03-11T06:41:26;95115.25;;;-1.92;100.00
2192;BME280;1102;49.718;11.902;2023-03-11T06:43:56;95115.81;;;-1.76;100.00
2192;BME280;1102;49.718;11.902;2023-03-11T06:46:26;95134.13;;;-1.92;100.00
2192;BME280;1102;49.718;11.902;2023-03-11T06:48:54;95120.00;;;-1.99;100.00
2192;BME280;1102;49.718;11.902;2023-03-11T06:51:23;95152.25;;;-1.68;100.00
2192;BME280;1102;49.718;11.902;2023-03-11T06:53:51;95115.59;;;-1.99;100.00
2192;BME280;1102;49.718;11.902;2023-03-11T06:56:21;95164.09;;;-1.62;100.00
2192;BME280;1102;49.718;11.902;2023-03-11T06:58:54;95081.28;;;-2.10;100.00
2192;BME280;1102;49.718;11.902;2023-03-11T07:01:24;95158.03;;;-1.52;100.00
2192;BME280;1102;49.718;11.902;2023-03-11T07:03:53;95106.63;;;-1.88;100.00
2192;BME280;1102;49.718;11.902;2023-03-11T07:06:24;95155.50;;;-1.57;100.00
2192;BME280;1102;49.718;11.902;2023-03-11T07:08:56;95143.72;;;-1.50;100.00
2192;BME280;1102;49.718;11.902;2023-03-11T07:11:24;95183.25;;;-1.39;100.00
2192;BME280;1102;49.718;11.902;2023-03-11T07:13:55;95155.88;;;-1.45;100.00
2192;BME280;1102;49.718;11.902;2023-03-11T07:16:24;95185.53;;;-1.13;100.00
2192;BME280;1102;49.718;11.902;2023-03-11T07:18:58;95199.97;;;-0.88;100.00
2192;BME280;1102;49.718;11.902;2023-03-11T07:21:27;95205.94;;;-0.88;100.00
2192;BME280;1102;49.718;11.902;2023-03-11T07:23:56;95216.88;;;-0.91;100.00
2192;BME280;1102;49.718;11.902;2023-03-11T07:26:24;95194.69;;;-1.21;100.00
2192;BME280;1102;49.718;11.902;2023-03-11T07:28:52;95213.50;;;-0.73;100.00
2192;BME280;1102;49.718;11.902;2023-03-11T07:31:28;95216.34;;;-0.55;100.00
2192;BME280;1102;49.718;11.902;2023-03-11T07:33:57;95232.81;;;-0.46;100.00
2192;BME280;1102;49.718;11.902;2023-03-11T07:36:24;95214.00;;;-0.90;100.00
2192;BME280;1102;49.718;11.902;2023-03-11T07:39:03;95235.28;;;-0.55;100.00
2192;BME280;1102;49.718;11.902;2023-03-11T07:41:32;95236.44;;;-0.61;100.00
2192;BME280;1102;49.718;11.902;2023-03-11T07:44:00;95242.09;;;-0.59;100.00
2192;BME280;1102;49.718;11.902;2023-03-11T07:46:28;95232.72;;;-0.93;100.00
2192;BME280;1102;49.718;11.902;2023-03-11T07:48:55;95248.56;;;-0.75;100.00
2192;BME280;1102;49.718;11.902;2023-03-11T07:51:24;95054.91;;;-1.74;100.00
2192;BME280;1102;49.718;11.902;2023-03-11T07:53:53;95255.00;;;-0.54;100.00
2192;BME280;1102;49.718;11.902;2023-03-11T07:56:22;95259.34;;;-0.68;100.00
2192;BME280;1102;49.718;11.902;2023-03-11T07:58:49;95262.31;;;-0.75;100.00
2192;BME280;1102;49.718;11.902;2023-03-11T08:01:20;95282.56;;;-0.77;100.00
2192;BME280;1102;49.718;11.902;2023-03-11T08:03:49;95254.16;;;-0.87;100.00
2192;BME280;1102;49.718;11.902;2023-03-11T08:06:18;95269.94;;;-0.46;100.00
2192;BME280;1102;49.718;11.902;2023-03-11T08:08:46;95279.22;;;-0.40;100.00
2192;BME280;1102;49.718;11.902;2023-03-11T08:11:13;95293.50;;;-0.42;100.00
2192;BME280;1102;49.718;11.902;2023-03-11T08:13:41;95308.41;;;-0.48;100.00
2192;BME280;1102;49.718;11.902;2023-03-11T08:16:10;95306.38;;;-0.51;100.00
2192;BME280;1102;49.718;11.902;2023-03-11T08:18:38;95250.78;;;-0.87;100.00
2192;BME280;1102;49.718;11.902;2023-03-11T08:21:05;95269.38;;;-0.62;100.00
2192;BME280;1102;49.718;11.902;2023-03-11T08:23:32;95286.31;;;-0.64;100.00
2192;BME280;1102;49.718;11.902;2023-03-11T08:26:03;95285.03;;;-0.67;100.00
2192;BME280;1102;49.718;11.902;2023-03-11T08:28:30;95318.50;;;-0.46;100.00
2192;BME280;1102;49.718;11.902;2023-03-11T08:30:56;95321.16;;;-0.51;100.00
2192;BME280;1102;49.718;11.902;2023-03-11T08:33:23;95269.47;;;-1.09;100.00
2192;BME280;1102;49.718;11.902;2023-03-11T08:35:49;95300.94;;;-0.92;100.00
2192;BME280;1102;49.718;11.902;2023-03-11T08:38:16;95311.03;;;-0.72;100.00
2192;BME280;1102;49.718;11.902;2023-03-11T08:40:43;95293.53;;;-0.80;100.00
2192;BME280;1102;49.718;11.902;2023-03-11T08:43:13;95330.44;;;-0.26;100.00
2192;BME280;1102;49.718;11.902;2023-03-11T08:45:43;95335.13;;;-0.28;100.00
2192;BME280;1102;49.718;11.902;2023-03-11T08:48:12;95305.50;;;-0.46;100.00
2192;BME280;1102;49.718;11.902;2023-03-11T08:50:40;95346.84;;;-0.31;100.00
2192;BME280;1102;49.718;11.902;2023-03-11T08:53:20;95332.50;;;-0.28;100.00
2192;BME280;1102;49.718;11.902;2023-03-11T08:55:49;95365.94;;;-0.22;100.00
2192;BME280;1102;49.718;11.902;2023-03-11T08:58:16;95346.56;;;-0.48;100.00
2192;BME280;1102;49.718;11.902;2023-03-11T09:00:43;95346.03;;;-0.69;100.00
2192;BME280;1102;49.718;11.902;2023-03-11T09:03:10;95345.22;;;-0.65;100.00
2192;BME280;1102;49.718;11.902;2023-03-11T09:05:37;95347.41;;;-0.53;100.00
2192;BME280;1102;49.718;11.902;2023-03-11T09:08:03;95329.63;;;-0.27;100.00
2192;BME280;1102;49.718;11.902;2023-03-11T09:10:31;95367.13;;;0.05;100.00
2192;BME280;1102;49.718;11.902;2023-03-11T09:12:58;95344.78;;;-0.15;100.00
2192;BME280;1102;49.718;11.902;2023-03-11T09:15:24;95355.47;;;0.02;100.00
2192;BME280;1102;49.718;11.902;2023-03-11T09:17:51;95369.50;;;-0.37;100.00
2192;BME280;1102;49.718;11.902;2023-03-11T09:20:18;95314.09;;;-0.88;100.00
2192;BME280;1102;49.718;11.902;2023-03-11T09:22:45;95317.44;;;-0.64;100.00
2192;BME280;1102;49.718;11.902;2023-03-11T09:25:12;95365.97;;;-0.27;100.00
2192;BME280;1102;49.718;11.902;2023-03-11T09:27:39;95393.59;;;-0.12;100.00
2192;BME280;1102;49.718;11.902;2023-03-11T09:30:08;95401.16;;;-0.16;100.00
2192;BME280;1102;49.718;11.902;2023-03-11T09:32:35;95387.63;;;-0.13;100.00
2192;BME280;1102;49.718;11.902;2023-03-11T09:35:02;95401.88;;;0.09;100.00
2192;BME280;1102;49.718;11.902;2023-03-11T09:37:29;95357.34;;;-0.04;100.00
2192;BME280;1102;49.718;11.902;2023-03-11T09:39:55;95382.03;;;0.13;100.00
2192;BME280;1102;49.718;11.902;2023-03-11T09:45:20;95413.84;;;0.42;100.00
2192;BME280;1102;49.718;11.902;2023-03-11T09:48:51;95419.97;;;0.33;100.00
2192;BME280;1102;49.718;11.902;2023-03-11T09:51:02;95419.59;;;0.39;100.00
2192;BME280;1102;49.718;11.902;2023-03-11T09:53:39;95422.28;;;0.34;100.00
2192;BME280;1102;49.718;11.902;2023-03-11T09:56:14;95418.56;;;0.40;100.00
2192;BME280;1102;49.718;11.902;2023-03-11T10:01:19;95426.84;;;0.42;100.00
2192;BME280;1102;49.718;11.902;2023-03-11T10:03:47;95402.41;;;0.43;100.00
2192;BME280;1102;49.718;11.902;2023-03-11T10:06:23;95437.50;;;0.59;100.00
2192;BME280;1102;49.718;11.902;2023-03-11T10:08:51;95448.88;;;0.96;100.00
2192;BME280;1102;49.718;11.902;2023-03-11T10:12:14;95432.00;;;0.61;100.00
2192;BME280;1102;49.718;11.902;2023-03-11T10:19:58;95449.28;;;0.19;100.00
2192;BME280;1102;49.718;11.902;2023-03-11T10:22:43;95425.94;;;-0.05;100.00
2192;BME280;1102;49.718;11.902;2023-03-11T10:25:15;95445.75;;;0.29;100.00
2192;BME280;1102;49.718;11.902;2023-03-11T10:27:53;95449.19;;;0.24;100.00
2192;BME280;1102;49.718;11.902;2023-03-11T10:30:48;95446.44;;;-0.03;100.00
2192;BME280;1102;49.718;11.902;2023-03-11T10:35:55;95436.69;;;0.45;100.00
2192;BME280;1102;49.718;11.902;2023-03-11T10:38:30;95441.50;;;0.52;100.00
2192;BME280;1102;49.718;11.902;2023-03-11T10:41:01;95445.00;;;0.61;100.00
2192;BME280;1102;49.718;11.902;2023-03-11T10:43:38;95440.53;;;0.48;100.00
2192;BME280;1102;49.718;11.902;2023-03-11T10:46:16;95449.53;;;0.55;100.00
2192;BME280;1102;49.718;11.902;2023-03-11T10:48:44;95427.34;;;0.44;100.00
2192;BME280;1102;49.718;11.902;2023-03-11T10:53:55;95434.38;;;0.44;100.00
2192;BME280;1102;49.718;11.902;2023-03-11T10:56:34;95452.03;;;0.61;100.00
2192;BME280;1102;49.718;11.902;2023-03-11T10:59:03;95385.16;;;-0.04;100.00
2192;BME280;1102;49.718;11.902;2023-03-11T11:01:30;95463.06;;;0.52;100.00
2192;BME280;1102;49.718;11.902;2023-03-11T11:04:00;95451.50;;;0.45;100.00
2192;BME280;1102;49.718;11.902;2023-03-11T11:11:32;95467.06;;;0.82;100.00
2192;BME280;1102;49.718;11.902;2023-03-11T11:14:02;95442.72;;;0.41;100.00
2192;BME280;1102;49.718;11.902;2023-03-11T11:16:29;95460.69;;;0.37;100.00
2192;BME280;1102;49.718;11.902;2023-03-11T11:21:33;95484.44;;;0.49;100.00
2192;BME280;1102;49.718;11.902;2023-03-11T11:26:39;95440.47;;;0.34;100.00
2192;BME280;1102;49.718;11.902;2023-03-11T11:29:12;95466.44;;;0.72;100.00
2192;BME280;1102;49.718;11.902;2023-03-11T11:31:42;95466.38;;;0.91;100.00
2192;BME280;1102;49.718;11.902;2023-03-11T11:36:53;95471.81;;;0.94;100.00
2192;BME280;1102;49.718;11.902;2023-03-11T11:39:25;95469.94;;;0.81;100.00
2192;BME280;1102;49.718;11.902;2023-03-11T11:41:54;95460.66;;;0.75;100.00
2192;BME280;1102;49.718;11.902;2023-03-11T11:44:30;95468.47;;;0.75;100.00
2192;BME280;1102;49.718;11.902;2023-03-11T11:47:03;95468.16;;;0.76;100.00
2192;BME280;1102;49.718;11.902;2023-03-11T11:49:33;95484.06;;;0.75;100.00
2192;BME280;1102;49.718;11.902;2023-03-11T11:52:15;95484.22;;;0.65;100.00
2192;BME280;1102;49.718;11.902;2023-03-11T11:54:50;95452.28;;;0.45;100.00
2192;BME280;1102;49.718;11.902;2023-03-11T11:57:20;95491.91;;;0.56;100.00
2192;BME280;1102;49.718;11.902;2023-03-11T11:59:48;95497.59;;;0.58;100.00
2192;BME280;1102;49.718;11.902;2023-03-11T12:02:18;95488.91;;;0.30;100.00
2192;BME280;1102;49.718;11.902;2023-03-11T12:04:53;95464.50;;;0.26;100.00
2192;BME280;1102;49.718;11.902;2023-03-11T12:07:43;95493.09;;;0.07;100.00
2192;BME280;1102;49.718;11.902;2023-03-11T12:16:01;95467.88;;;-0.11;100.00
2192;BME280;1102;49.718;11.902;2023-03-11T12:18:35;95456.75;;;-0.36;100.00
2192;BME280;1102;49.718;11.902;2023-03-11T12:24:15;95478.66;;;-0.23;100.00
2192;BME280;1102;49.718;11.902;2023-03-11T12:26:48;95467.91;;;-0.35;100.00
2192;BME280;1102;49.718;11.902;2023-03-11T12:29:28;95493.00;;;-0.07;100.00
2192;BME280;1102;49.718;11.902;2023-03-11T12:31:58;95472.72;;;-0.28;100.00
2192;BME280;1102;49.718;11.902;2023-03-11T12:34:27;95443.97;;;-0.56;100.00
2192;BME280;1102;49.718;11.902;2023-03-11T12:36:57;95440.88;;;-0.34;100.00
2192;BME280;1102;49.718;11.902;2023-03-11T12:39:32;95493.00;;;-0.07;100.00
2192;BME280;1102;49.718;11.902;2023-03-11T12:42:20;95492.56;;;-0.14;100.00
2192;BME280;1102;49.718;11.902;2023-03-11T12:44:48;95491.25;;;-0.11;100.00
2192;BME280;1102;49.718;11.902;2023-03-11T12:47:21;95487.25;;;-0.04;100.00
2192;BME280;1102;49.718;11.902;2023-03-11T12:49:52;95486.63;;;0.23;100.00
2192;BME280;1102;49.718;11.902;2023-03-11T12:52:26;95486.69;;;0.37;100.00
2192;BME280;1102;49.718;11.902;2023-03-11T12:57:50;95463.13;;;0.15;100.00
2192;BME280;1102;49.718;11.902;2023-03-11T13:08:53;95502.25;;;0.42;100.00
2192;BME280;1102;49.718;11.902;2023-03-11T13:14:22;95505.63;;;0.43;100.00
2192;BME280;1102;49.718;11.902;2023-03-11T13:16:52;95466.41;;;0.20;100.00
2192;BME280;1102;49.718;11.902;2023-03-11T13:21:57;95504.84;;;0.42;100.00
2192;BME280;1102;49.718;11.902;2023-03-11T13:29:49;95516.13;;;0.51;100.00
2192;BME280;1102;49.718;11.902;2023-03-11T13:33:06;95523.66;;;0.53;100.00
2192;BME280;1102;49.718;11.902;2023-03-11T13:36:01;95521.63;;;0.69;100.00
2192;BME280;1102;49.718;11.902;2023-03-11T13:38:42;95518.78;;;0.84;100.00
2192;BME280;1102;49.718;11.902;2023-03-11T13:41:18;95490.28;;;0.60;100.00
2192;BME280;1102;49.718;11.902;2023-03-11T13:43:49;95524.06;;;0.79;100.00
2192;BME280;1102;49.718;11.902;2023-03-11T13:46:27;95524.34;;;0.77;100.00
2192;BME280;1102;49.718;11.902;2023-03-11T13:49:03;95519.91;;;0.97;100.00
2192;BME280;1102;49.718;11.902;2023-03-11T13:51:43;95537.28;;;0.82;100.00
2192;BME280;1102;49.718;11.902;2023-03-11T13:56:49;95493.66;;;0.61;100.00
2192;BME280;1102;49.718;11.902;2023-03-11T13:59:29;95502.72;;;0.44;100.00
2192;BME280;1102;49.718;11.902;2023-03-11T14:04:29;95533.97;;;0.77;100.00
2192;BME280;1102;49.718;11.902;2023-03-11T14:06:57;95555.28;;;0.79;100.00
2192;BME280;1102;49.718;11.902;2023-03-11T14:09:27;95517.53;;;0.25;100.00
2192;BME280;1102;49.718;11.902;2023-03-11T14:12:03;95540.94;;;0.25;100.00
2192;BME280;1102;49.718;11.902;2023-03-11T14:17:13;95573.66;;;0.26;100.00
2192;BME280;1102;49.718;11.902;2023-03-11T14:19:41;95553.50;;;0.18;100.00
2192;BME280;1102;49.718;11.902;2023-03-11T14:22:09;95547.66;;;0.26;100.00
2192;BME280;1102;49.718;11.902;2023-03-11T14:24:36;95566.59;;;0.32;100.00
2192;BME280;1102;49.718;11.902;2023-03-11T14:27:08;95505.09;;;0.03;100.00